6 Max
5 km/h
3 Mini

LFMY 140030Z AUTO 00000KT 9999 SCT019 22/20 Q1014

TAF LFMY 131408Z 1315/1415 CNL